sensor_id;sensor_type;location;lat;lon;timestamp;pressure;altitude;pressure_sealevel;temperature;humidity
49943;BME280;36011;53.362;58.948;2023-05-25T00:02:10;97930.88;;;13.28;38.67
49943;BME280;36011;53.362;58.948;2023-05-25T00:05:17;97922.28;;;13.39;38.37
49943;BME280;36011;53.362;58.948;2023-05-25T00:08:24;97926.75;;;13.53;38.10
49943;BME280;36011;53.362;58.948;2023-05-25T00:11:30;97928.88;;;13.62;38.11
49943;BME280;36011;53.362;58.948;2023-05-25T00:14:31;97931.88;;;13.70;38.71
49943;BME280;36011;53.362;58.948;2023-05-25T00:17:32;97930.50;;;13.79;37.86
49943;BME280;36011;53.362;58.948;2023-05-25T00:20:38;97932.66;;;13.86;38.42
49943;BME280;36011;53.362;58.948;2023-05-25T00:23:44;97929.63;;;13.92;38.46
49943;BME280;36011;53.362;58.948;2023-05-25T00:26:50;97925.47;;;14.03;38.01
49943;BME280;36011;53.362;58.948;2023-05-25T00:29:51;97936.44;;;14.11;37.83
49943;BME280;36011;53.362;58.948;2023-05-25T00:32:54;97933.31;;;14.19;37.80
49943;BME280;36011;53.362;58.948;2023-05-25T00:35:58;97944.16;;;14.28;38.54
49943;BME280;36011;53.362;58.948;2023-05-25T00:39:02;97934.72;;;14.38;37.69
49943;BME280;36011;53.362;58.948;2023-05-25T00:42:06;97928.81;;;14.48;37.51
49943;BME280;36011;53.362;58.948;2023-05-25T00:45:10;97928.25;;;14.57;37.20
49943;BME280;36011;53.362;58.948;2023-05-25T00:48:15;97928.53;;;14.67;37.75
49943;BME280;36011;53.362;58.948;2023-05-25T00:51:19;97919.88;;;14.77;37.29
49943;BME280;36011;53.362;58.948;2023-05-25T00:54:22;97926.06;;;14.91;37.26
49943;BME280;36011;53.362;58.948;2023-05-25T00:57:23;97937.78;;;15.01;37.48
49943;BME280;36011;53.362;58.948;2023-05-25T01:00:25;97943.22;;;15.12;36.54
49943;BME280;36011;53.362;58.948;2023-05-25T01:03:28;97944.22;;;15.24;36.81
49943;BME280;36011;53.362;58.948;2023-05-25T01:06:33;97946.16;;;15.35;36.80
49943;BME280;36011;53.362;58.948;2023-05-25T01:09:38;97948.94;;;15.46;37.60
49943;BME280;36011;53.362;58.948;2023-05-25T01:12:41;97949.78;;;15.59;36.54
49943;BME280;36011;53.362;58.948;2023-05-25T01:15:46;97958.75;;;15.71;36.21
49943;BME280;36011;53.362;58.948;2023-05-25T01:18:50;97954.63;;;15.80;36.37
49943;BME280;36011;53.362;58.948;2023-05-25T01:22:00;97960.22;;;15.88;36.30
49943;BME280;36011;53.362;58.948;2023-05-25T01:25:07;97960.75;;;15.93;36.54
49943;BME280;36011;53.362;58.948;2023-05-25T01:28:26;97956.00;;;15.98;36.83
49943;BME280;36011;53.362;58.948;2023-05-25T01:31:30;97958.22;;;16.04;36.69
49943;BME280;36011;53.362;58.948;2023-05-25T01:34:35;97965.97;;;16.07;36.98
49943;BME280;36011;53.362;58.948;2023-05-25T01:37:37;97953.44;;;16.09;37.46
49943;BME280;36011;53.362;58.948;2023-05-25T01:40:45;97956.00;;;16.11;37.62
49943;BME280;36011;53.362;58.948;2023-05-25T01:43:46;97962.38;;;16.08;37.88
49943;BME280;36011;53.362;58.948;2023-05-25T01:46:52;97958.75;;;16.09;37.40
49943;BME280;36011;53.362;58.948;2023-05-25T01:50:03;97970.00;;;16.13;37.02
49943;BME280;36011;53.362;58.948;2023-05-25T01:53:09;97958.84;;;16.21;38.05
49943;BME280;36011;53.362;58.948;2023-05-25T01:56:17;97962.56;;;16.31;37.36
49943;BME280;36011;53.362;58.948;2023-05-25T01:59:21;97962.13;;;16.37;37.63
49943;BME280;36011;53.362;58.948;2023-05-25T02:02:24;97967.00;;;16.43;38.45
49943;BME280;36011;53.362;58.948;2023-05-25T02:05:25;97963.38;;;16.44;37.63
49943;BME280;36011;53.362;58.948;2023-05-25T02:08:30;97961.69;;;16.43;37.01
49943;BME280;36011;53.362;58.948;2023-05-25T02:11:33;97962.81;;;16.52;37.74
49943;BME280;36011;53.362;58.948;2023-05-25T02:14:38;97962.81;;;16.65;37.17
49943;BME280;36011;53.362;58.948;2023-05-25T02:17:43;97946.94;;;16.76;36.48
49943;BME280;36011;53.362;58.948;2023-05-25T02:21:04;97952.59;;;16.95;36.71
49943;BME280;36011;53.362;58.948;2023-05-25T02:24:08;97950.28;;;17.15;37.56
49943;BME280;36011;53.362;58.948;2023-05-25T02:27:14;97947.94;;;17.34;38.60
49943;BME280;36011;53.362;58.948;2023-05-25T02:30:16;97943.91;;;17.53;36.75
49943;BME280;36011;53.362;58.948;2023-05-25T02:33:20;97956.66;;;17.71;37.79
49943;BME280;36011;53.362;58.948;2023-05-25T02:36:26;97951.13;;;17.86;36.49
49943;BME280;36011;53.362;58.948;2023-05-25T02:39:30;97958.19;;;17.98;36.14
49943;BME280;36011;53.362;58.948;2023-05-25T02:42:33;97953.00;;;18.19;34.79
49943;BME280;36011;53.362;58.948;2023-05-25T02:45:36;97959.06;;;18.32;36.05
49943;BME280;36011;53.362;58.948;2023-05-25T02:48:36;97951.28;;;18.52;35.06
49943;BME280;36011;53.362;58.948;2023-05-25T02:51:40;97952.34;;;18.72;35.38
49943;BME280;36011;53.362;58.948;2023-05-25T02:54:41;97951.72;;;18.91;35.00
49943;BME280;36011;53.362;58.948;2023-05-25T02:57:42;97953.16;;;19.06;34.94
49943;BME280;36011;53.362;58.948;2023-05-25T03:00:44;97960.97;;;19.19;35.79
49943;BME280;36011;53.362;58.948;2023-05-25T03:03:46;97962.25;;;19.36;35.13
49943;BME280;36011;53.362;58.948;2023-05-25T03:06:51;97961.81;;;19.51;34.86
49943;BME280;36011;53.362;58.948;2023-05-25T03:09:55;97958.25;;;19.62;34.96
49943;BME280;36011;53.362;58.948;2023-05-25T03:12:56;97960.88;;;19.73;34.67
49943;BME280;36011;53.362;58.948;2023-05-25T03:16:01;97966.16;;;19.85;34.71
49943;BME280;36011;53.362;58.948;2023-05-25T03:19:05;97961.00;;;19.93;34.31
49943;BME280;36011;53.362;58.948;2023-05-25T03:22:09;97964.13;;;19.98;34.55
49943;BME280;36011;53.362;58.948;2023-05-25T03:25:13;97959.41;;;20.11;34.77
49943;BME280;36011;53.362;58.948;2023-05-25T03:28:16;97958.59;;;20.21;33.85
49943;BME280;36011;53.362;58.948;2023-05-25T03:31:20;97963.25;;;20.18;34.06
49943;BME280;36011;53.362;58.948;2023-05-25T03:34:23;97962.53;;;20.16;34.14
49943;BME280;36011;53.362;58.948;2023-05-25T03:37:28;97954.44;;;20.28;34.35
49943;BME280;36011;53.362;58.948;2023-05-25T03:40:31;97957.47;;;20.44;33.88
49943;BME280;36011;53.362;58.948;2023-05-25T03:43:40;97954.19;;;20.61;33.46
49943;BME280;36011;53.362;58.948;2023-05-25T03:46:43;97958.31;;;20.85;33.68
49943;BME280;36011;53.362;58.948;2023-05-25T03:49:44;97949.03;;;21.08;33.04
49943;BME280;36011;53.362;58.948;2023-05-25T03:52:45;97954.41;;;21.28;33.14
49943;BME280;36011;53.362;58.948;2023-05-25T03:55:50;97944.59;;;21.48;32.77
49943;BME280;36011;53.362;58.948;2023-05-25T03:58:51;97948.81;;;21.70;32.75
49943;BME280;36011;53.362;58.948;2023-05-25T04:01:57;97954.56;;;21.94;32.24
49943;BME280;36011;53.362;58.948;2023-05-25T04:04:59;97952.38;;;22.08;32.05
49943;BME280;36011;53.362;58.948;2023-05-25T04:08:02;97948.44;;;22.12;31.91
49943;BME280;36011;53.362;58.948;2023-05-25T04:11:05;97945.72;;;22.31;31.77
49943;BME280;36011;53.362;58.948;2023-05-25T04:14:06;97947.44;;;22.50;31.55
49943;BME280;36011;53.362;58.948;2023-05-25T04:17:10;97941.47;;;22.66;31.72
49943;BME280;36011;53.362;58.948;2023-05-25T04:20:16;97939.66;;;22.84;31.33
49943;BME280;36011;53.362;58.948;2023-05-25T04:23:20;97944.38;;;23.00;31.28
49943;BME280;36011;53.362;58.948;2023-05-25T04:26:24;97941.88;;;23.17;31.64
49943;BME280;36011;53.362;58.948;2023-05-25T04:29:31;97942.34;;;23.48;31.20
49943;BME280;36011;53.362;58.948;2023-05-25T04:32:37;97942.91;;;23.78;30.78
49943;BME280;36011;53.362;58.948;2023-05-25T04:35:40;97938.91;;;24.34;30.31
49943;BME280;36011;53.362;58.948;2023-05-25T04:38:44;97942.66;;;26.16;28.41
49943;BME280;36011;53.362;58.948;2023-05-25T04:41:51;97947.44;;;28.75;25.43
49943;BME280;36011;53.362;58.948;2023-05-25T04:44:53;97949.28;;;31.29;23.25
49943;BME280;36011;53.362;58.948;2023-05-25T04:47:57;97955.97;;;33.38;21.84
49943;BME280;36011;53.362;58.948;2023-05-25T04:51:04;97962.28;;;35.56;20.54
49943;BME280;36011;53.362;58.948;2023-05-25T04:54:08;97958.34;;;38.03;19.13
49943;BME280;36011;53.362;58.948;2023-05-25T04:57:15;97962.81;;;40.39;17.71
49943;BME280;36011;53.362;58.948;2023-05-25T05:00:18;97956.25;;;42.32;16.71
49943;BME280;36011;53.362;58.948;2023-05-25T05:03:24;97958.09;;;44.22;16.47
49943;BME280;36011;53.362;58.948;2023-05-25T05:06:30;97963.66;;;45.66;14.33
49943;BME280;36011;53.362;58.948;2023-05-25T05:09:32;97945.03;;;46.78;10.52
49943;BME280;36011;53.362;58.948;2023-05-25T05:12:33;97955.50;;;47.37;12.36
49943;BME280;36011;53.362;58.948;2023-05-25T05:15:36;97948.50;;;48.21;9.90
49943;BME280;36011;53.362;58.948;2023-05-25T05:18:42;97951.94;;;48.49;9.02
49943;BME280;36011;53.362;58.948;2023-05-25T05:21:48;97952.09;;;48.21;8.71
49943;BME280;36011;53.362;58.948;2023-05-25T05:24:49;97944.44;;;48.58;7.28
49943;BME280;36011;53.362;58.948;2023-05-25T05:27:50;97931.97;;;49.13;7.71
49943;BME280;36011;53.362;58.948;2023-05-25T05:30:53;97939.78;;;49.59;7.31
49943;BME280;36011;53.362;58.948;2023-05-25T05:33:54;97935.88;;;50.51;5.97
49943;BME280;36011;53.362;58.948;2023-05-25T05:37:00;97936.75;;;50.17;5.39
49943;BME280;36011;53.362;58.948;2023-05-25T05:40:02;97920.03;;;49.99;5.58
49943;BME280;36011;53.362;58.948;2023-05-25T05:43:08;97915.25;;;49.82;5.01
49943;BME280;36011;53.362;58.948;2023-05-25T05:46:14;97918.72;;;48.70;4.82
49943;BME280;36011;53.362;58.948;2023-05-25T05:49:18;97916.38;;;48.09;4.48
49943;BME280;36011;53.362;58.948;2023-05-25T05:52:21;97909.88;;;47.33;5.11
49943;BME280;36011;53.362;58.948;2023-05-25T05:55:26;97895.19;;;48.00;4.68
49943;BME280;36011;53.362;58.948;2023-05-25T05:58:28;97906.19;;;49.16;4.21
49943;BME280;36011;53.362;58.948;2023-05-25T06:01:34;97915.25;;;50.00;3.66
49943;BME280;36011;53.362;58.948;2023-05-25T06:04:36;97903.09;;;49.43;4.06
49943;BME280;36011;53.362;58.948;2023-05-25T06:07:42;97903.22;;;49.99;4.14
49943;BME280;36011;53.362;58.948;2023-05-25T06:10:47;97899.81;;;51.30;4.18
49943;BME280;36011;53.362;58.948;2023-05-25T06:13:51;97897.38;;;52.37;3.56
49943;BME280;36011;53.362;58.948;2023-05-25T06:16:59;97901.72;;;52.71;3.63
49943;BME280;36011;53.362;58.948;2023-05-25T06:20:00;97892.38;;;53.44;3.93
49943;BME280;36011;53.362;58.948;2023-05-25T06:23:01;97905.97;;;54.90;2.99
49943;BME280;36011;53.362;58.948;2023-05-25T06:26:03;97893.78;;;56.41;2.87
49943;BME280;36011;53.362;58.948;2023-05-25T06:29:09;97895.47;;;56.69;2.97
49943;BME280;36011;53.362;58.948;2023-05-25T06:32:14;97889.22;;;55.91;2.59
49943;BME280;36011;53.362;58.948;2023-05-25T06:35:17;97876.97;;;55.44;2.79
49943;BME280;36011;53.362;58.948;2023-05-25T06:38:22;97877.03;;;56.29;2.24
49943;BME280;36011;53.362;58.948;2023-05-25T06:41:25;97880.22;;;56.77;2.65
49943;BME280;36011;53.362;58.948;2023-05-25T06:44:29;97883.75;;;58.29;2.69
49943;BME280;36011;53.362;58.948;2023-05-25T06:47:34;97879.84;;;59.83;1.56
49943;BME280;36011;53.362;58.948;2023-05-25T06:50:37;97881.97;;;60.79;1.89
49943;BME280;36011;53.362;58.948;2023-05-25T06:53:41;97891.13;;;61.41;1.53
49943;BME280;36011;53.362;58.948;2023-05-25T06:56:46;97882.16;;;61.46;1.45
49943;BME280;36011;53.362;58.948;2023-05-25T07:00:05;97875.06;;;59.07;2.43
49943;BME280;36011;53.362;58.948;2023-05-25T07:03:16;97856.41;;;56.78;3.21
49943;BME280;36011;53.362;58.948;2023-05-25T07:06:21;97854.53;;;58.21;2.72
49943;BME280;36011;53.362;58.948;2023-05-25T07:09:31;97864.38;;;59.63;1.48
49943;BME280;36011;53.362;58.948;2023-05-25T07:12:37;97852.13;;;55.14;2.53
49943;BME280;36011;53.362;58.948;2023-05-25T07:15:38;97830.81;;;50.74;3.47
49943;BME280;36011;53.362;58.948;2023-05-25T07:18:43;97812.31;;;47.10;4.52
49943;BME280;36011;53.362;58.948;2023-05-25T07:21:50;97806.66;;;44.45;5.58
49943;BME280;36011;53.362;58.948;2023-05-25T07:24:56;97794.28;;;41.90;6.46
49943;BME280;36011;53.362;58.948;2023-05-25T07:28:01;97797.16;;;43.74;5.79
49943;BME280;36011;53.362;58.948;2023-05-25T07:31:05;97809.66;;;45.29;5.40
49943;BME280;36011;53.362;58.948;2023-05-25T07:34:09;97797.28;;;43.87;5.71
49943;BME280;36011;53.362;58.948;2023-05-25T07:37:13;97795.38;;;42.75;6.02
49943;BME280;36011;53.362;58.948;2023-05-25T07:40:14;97795.69;;;41.93;6.56
49943;BME280;36011;53.362;58.948;2023-05-25T07:43:18;97797.53;;;40.90;6.77
49943;BME280;36011;53.362;58.948;2023-05-25T07:46:23;97793.97;;;39.79;7.41
49943;BME280;36011;53.362;58.948;2023-05-25T07:49:29;97795.66;;;38.89;7.80
49943;BME280;36011;53.362;58.948;2023-05-25T07:52:33;97796.91;;;38.54;7.70
49943;BME280;36011;53.362;58.948;2023-05-25T07:55:40;97797.97;;;39.61;7.41
49943;BME280;36011;53.362;58.948;2023-05-25T07:58:44;97799.53;;;41.46;6.69
49943;BME280;36011;53.362;58.948;2023-05-25T08:01:51;97800.94;;;41.59;7.08
49943;BME280;36011;53.362;58.948;2023-05-25T08:04:57;97800.75;;;40.61;7.11
49943;BME280;36011;53.362;58.948;2023-05-25T08:08:00;97800.78;;;40.14;7.17
49943;BME280;36011;53.362;58.948;2023-05-25T08:11:01;97801.31;;;40.11;7.60
49943;BME280;36011;53.362;58.948;2023-05-25T08:14:07;97801.47;;;41.40;7.03
49943;BME280;36011;53.362;58.948;2023-05-25T08:17:14;97796.56;;;42.58;6.87
49943;BME280;36011;53.362;58.948;2023-05-25T08:20:18;97799.81;;;41.70;7.30
49943;BME280;36011;53.362;58.948;2023-05-25T08:23:25;97792.25;;;40.78;7.47
49943;BME280;36011;53.362;58.948;2023-05-25T08:26:29;97791.00;;;41.47;7.34
49943;BME280;36011;53.362;58.948;2023-05-25T08:29:32;97797.44;;;43.43;6.65
49943;BME280;36011;53.362;58.948;2023-05-25T08:32:35;97809.63;;;45.67;5.77
49943;BME280;36011;53.362;58.948;2023-05-25T08:35:42;97801.06;;;47.60;5.24
49943;BME280;36011;53.362;58.948;2023-05-25T08:38:43;97798.84;;;47.71;4.88
49943;BME280;36011;53.362;58.948;2023-05-25T08:41:48;97787.81;;;46.85;5.43
49943;BME280;36011;53.362;58.948;2023-05-25T08:44:52;97791.41;;;47.66;5.28
49943;BME280;36011;53.362;58.948;2023-05-25T08:47:58;97791.03;;;49.75;4.51
49943;BME280;36011;53.362;58.948;2023-05-25T08:51:07;97795.06;;;50.71;4.10
49943;BME280;36011;53.362;58.948;2023-05-25T08:54:13;97794.38;;;50.95;4.18
49943;BME280;36011;53.362;58.948;2023-05-25T08:57:24;97788.09;;;48.84;4.27
49943;BME280;36011;53.362;58.948;2023-05-25T09:00:37;97780.84;;;46.46;5.25
49943;BME280;36011;53.362;58.948;2023-05-25T09:03:44;97777.78;;;45.59;5.76
49943;BME280;36011;53.362;58.948;2023-05-25T09:06:51;97765.53;;;45.60;5.75
49943;BME280;36011;53.362;58.948;2023-05-25T09:09:55;97767.25;;;44.00;6.54
49943;BME280;36011;53.362;58.948;2023-05-25T09:13:02;97769.91;;;42.03;7.14
49943;BME280;36011;53.362;58.948;2023-05-25T09:16:04;97749.84;;;40.22;7.66
49943;BME280;36011;53.362;58.948;2023-05-25T09:19:07;97754.75;;;38.75;8.52
49943;BME280;36011;53.362;58.948;2023-05-25T09:22:13;97747.03;;;37.84;8.74
49943;BME280;36011;53.362;58.948;2023-05-25T09:25:18;97742.25;;;37.24;9.33
49943;BME280;36011;53.362;58.948;2023-05-25T09:28:24;97741.25;;;36.39;9.13
49943;BME280;36011;53.362;58.948;2023-05-25T09:31:29;97736.72;;;35.69;9.71
49943;BME280;36011;53.362;58.948;2023-05-25T09:34:33;97733.38;;;35.43;9.60
49943;BME280;36011;53.362;58.948;2023-05-25T09:37:42;97734.00;;;35.57;9.43
49943;BME280;36011;53.362;58.948;2023-05-25T09:40:43;97735.16;;;35.85;9.34
49943;BME280;36011;53.362;58.948;2023-05-25T09:43:45;97725.38;;;36.12;9.92
49943;BME280;36011;53.362;58.948;2023-05-25T09:46:46;97726.34;;;36.35;9.64
49943;BME280;36011;53.362;58.948;2023-05-25T09:49:50;97724.56;;;36.69;9.40
49943;BME280;36011;53.362;58.948;2023-05-25T09:52:58;97728.22;;;39.18;8.23
49943;BME280;36011;53.362;58.948;2023-05-25T09:56:05;97729.50;;;40.38;7.68
49943;BME280;36011;53.362;58.948;2023-05-25T09:59:06;97723.59;;;41.08;7.96
49943;BME280;36011;53.362;58.948;2023-05-25T10:02:09;97726.84;;;42.51;6.88
49943;BME280;36011;53.362;58.948;2023-05-25T10:05:11;97723.91;;;43.50;6.92
49943;BME280;36011;53.362;58.948;2023-05-25T10:08:16;97725.69;;;44.19;6.87
49943;BME280;36011;53.362;58.948;2023-05-25T10:11:18;97726.66;;;44.90;6.29
49943;BME280;36011;53.362;58.948;2023-05-25T10:14:25;97712.38;;;45.48;6.03
49943;BME280;36011;53.362;58.948;2023-05-25T10:17:30;97716.34;;;46.16;5.85
49943;BME280;36011;53.362;58.948;2023-05-25T10:20:33;97708.59;;;46.27;5.75
49943;BME280;36011;53.362;58.948;2023-05-25T10:23:44;97708.22;;;46.33;5.84
49943;BME280;36011;53.362;58.948;2023-05-25T10:26:52;97709.13;;;45.87;5.98
49943;BME280;36011;53.362;58.948;2023-05-25T10:29:56;97702.41;;;45.61;6.05
49943;BME280;36011;53.362;58.948;2023-05-25T10:32:59;97703.44;;;46.20;5.97
49943;BME280;36011;53.362;58.948;2023-05-25T10:36:05;97696.16;;;45.97;5.95
49943;BME280;36011;53.362;58.948;2023-05-25T10:39:07;97701.44;;;44.86;6.28
49943;BME280;36011;53.362;58.948;2023-05-25T10:42:08;97699.94;;;44.37;6.70
49943;BME280;36011;53.362;58.948;2023-05-25T10:45:15;97697.69;;;44.39;6.67
49943;BME280;36011;53.362;58.948;2023-05-25T10:48:17;97700.00;;;44.32;6.43
49943;BME280;36011;53.362;58.948;2023-05-25T10:51:22;97692.66;;;43.74;6.55
49943;BME280;36011;53.362;58.948;2023-05-25T10:54:41;97685.00;;;43.66;6.80
49943;BME280;36011;53.362;58.948;2023-05-25T10:57:43;97692.13;;;44.20;6.88
49943;BME280;36011;53.362;58.948;2023-05-25T11:07:09;97669.50;;;40.91;7.97
49943;BME280;36011;53.362;58.948;2023-05-25T11:10:13;97671.59;;;39.70;8.79
49943;BME280;36011;53.362;58.948;2023-05-25T11:13:35;97663.97;;;39.02;8.92
49943;BME280;36011;53.362;58.948;2023-05-25T11:16:40;97659.56;;;39.39;8.84
49943;BME280;36011;53.362;58.948;2023-05-25T11:22:47;97663.97;;;41.17;7.80
49943;BME280;36011;53.362;58.948;2023-05-25T11:25:50;97656.63;;;40.13;8.27
49943;BME280;36011;53.362;58.948;2023-05-25T11:28:54;97649.91;;;38.39;8.81
49943;BME280;36011;53.362;58.948;2023-05-25T11:31:59;97652.41;;;37.53;9.82
49943;BME280;36011;53.362;58.948;2023-05-25T11:35:02;97645.34;;;37.40;9.67
49943;BME280;36011;53.362;58.948;2023-05-25T11:38:13;97639.78;;;37.35;10.04
49943;BME280;36011;53.362;58.948;2023-05-25T11:41:16;97645.59;;;36.54;9.90
49943;BME280;36011;53.362;58.948;2023-05-25T11:44:27;97639.38;;;35.73;10.42
49943;BME280;36011;53.362;58.948;2023-05-25T11:47:28;97647.38;;;35.27;11.23
49943;BME280;36011;53.362;58.948;2023-05-25T11:50:34;97642.47;;;34.82;10.98
49943;BME280;36011;53.362;58.948;2023-05-25T11:53:41;97636.53;;;34.43;11.60
49943;BME280;36011;53.362;58.948;2023-05-25T11:56:46;97633.16;;;33.81;11.71
49943;BME280;36011;53.362;58.948;2023-05-25T11:59:50;97629.53;;;33.32;12.29
49943;BME280;36011;53.362;58.948;2023-05-25T12:02:54;97631.78;;;33.17;12.39
49943;BME280;36011;53.362;58.948;2023-05-25T12:06:03;97628.34;;;33.03;12.52
49943;BME280;36011;53.362;58.948;2023-05-25T12:09:11;97627.47;;;32.84;12.77
49943;BME280;36011;53.362;58.948;2023-05-25T12:12:13;97622.94;;;32.71;12.48
49943;BME280;36011;53.362;58.948;2023-05-25T12:15:23;97625.19;;;32.49;12.91
49943;BME280;36011;53.362;58.948;2023-05-25T12:18:28;97624.22;;;32.05;13.14
49943;BME280;36011;53.362;58.948;2023-05-25T12:21:31;97616.81;;;31.67;13.53
49943;BME280;36011;53.362;58.948;2023-05-25T12:24:38;97626.16;;;31.40;13.34
49943;BME280;36011;53.362;58.948;2023-05-25T12:27:41;97614.00;;;31.36;13.51
49943;BME280;36011;53.362;58.948;2023-05-25T12:30:46;97616.13;;;31.92;13.14
49943;BME280;36011;53.362;58.948;2023-05-25T12:34:03;97615.88;;;32.63;12.94
49943;BME280;36011;53.362;58.948;2023-05-25T12:37:21;97621.41;;;33.25;12.47
49943;BME280;36011;53.362;58.948;2023-05-25T12:40:22;97618.34;;;33.59;12.11
49943;BME280;36011;53.362;58.948;2023-05-25T12:43:26;97621.81;;;33.66;12.18
49943;BME280;36011;53.362;58.948;2023-05-25T12:46:38;97613.81;;;33.83;12.42
49943;BME280;36011;53.362;58.948;2023-05-25T12:49:44;97623.63;;;33.72;12.29
49943;BME280;36011;53.362;58.948;2023-05-25T12:52:51;97609.66;;;33.25;12.36
49943;BME280;36011;53.362;58.948;2023-05-25T12:56:04;97615.50;;;32.85;12.82
49943;BME280;36011;53.362;58.948;2023-05-25T12:59:15;97606.97;;;32.75;12.78
49943;BME280;36011;53.362;58.948;2023-05-25T13:02:17;97605.03;;;32.57;12.88
49943;BME280;36011;53.362;58.948;2023-05-25T13:08:19;97595.22;;;32.17;13.07
49943;BME280;36011;53.362;58.948;2023-05-25T13:11:20;97596.56;;;32.08;13.36
49943;BME280;36011;53.362;58.948;2023-05-25T13:14:24;97590.66;;;32.11;13.21
49943;BME280;36011;53.362;58.948;2023-05-25T13:17:28;97596.38;;;32.35;12.58
49943;BME280;36011;53.362;58.948;2023-05-25T13:20:32;97593.38;;;32.43;12.90
49943;BME280;36011;53.362;58.948;2023-05-25T13:23:33;97598.44;;;32.39;12.60
49943;BME280;36011;53.362;58.948;2023-05-25T13:26:34;97587.47;;;32.53;12.53
49943;BME280;36011;53.362;58.948;2023-05-25T13:29:35;97589.69;;;32.87;12.48
49943;BME280;36011;53.362;58.948;2023-05-25T13:32:38;97589.38;;;33.21;12.72
49943;BME280;36011;53.362;58.948;2023-05-25T13:35:42;97582.72;;;33.35;12.22
49943;BME280;36011;53.362;58.948;2023-05-25T13:38:57;97586.41;;;33.22;12.60
49943;BME280;36011;53.362;58.948;2023-05-25T13:42:03;97580.72;;;33.05;12.77
49943;BME280;36011;53.362;58.948;2023-05-25T13:45:04;97576.34;;;32.79;12.48
49943;BME280;36011;53.362;58.948;2023-05-25T13:48:08;97573.97;;;32.64;12.77
49943;BME280;36011;53.362;58.948;2023-05-25T13:51:15;97573.63;;;32.54;12.70
49943;BME280;36011;53.362;58.948;2023-05-25T13:54:21;97576.44;;;32.09;13.34
49943;BME280;36011;53.362;58.948;2023-05-25T13:57:23;97567.47;;;31.64;13.66
49943;BME280;36011;53.362;58.948;2023-05-25T14:00:24;97566.72;;;31.43;13.50
49943;BME280;36011;53.362;58.948;2023-05-25T14:03:27;97573.00;;;31.30;13.24
49943;BME280;36011;53.362;58.948;2023-05-25T14:06:28;97568.88;;;31.08;13.69
49943;BME280;36011;53.362;58.948;2023-05-25T14:09:32;97570.19;;;30.92;13.73
49943;BME280;36011;53.362;58.948;2023-05-25T14:12:35;97572.50;;;30.82;13.44
49943;BME280;36011;53.362;58.948;2023-05-25T14:15:39;97565.59;;;30.73;14.02
49943;BME280;36011;53.362;58.948;2023-05-25T14:18:44;97562.66;;;30.54;13.91
49943;BME280;36011;53.362;58.948;2023-05-25T14:21:48;97566.03;;;30.30;14.05
49943;BME280;36011;53.362;58.948;2023-05-25T14:24:49;97565.34;;;30.08;14.07
49943;BME280;36011;53.362;58.948;2023-05-25T14:27:52;97567.59;;;29.97;14.26
49943;BME280;36011;53.362;58.948;2023-05-25T14:30:53;97567.19;;;29.87;14.26
49943;BME280;36011;53.362;58.948;2023-05-25T14:33:56;97560.88;;;29.80;14.67
49943;BME280;36011;53.362;58.948;2023-05-25T14:37:02;97565.06;;;29.76;14.56
49943;BME280;36011;53.362;58.948;2023-05-25T14:40:06;97548.75;;;29.63;14.54
49943;BME280;36011;53.362;58.948;2023-05-25T14:43:09;97555.13;;;29.42;14.61
49943;BME280;36011;53.362;58.948;2023-05-25T14:46:11;97551.28;;;29.23;15.21
49943;BME280;36011;53.362;58.948;2023-05-25T14:49:16;97556.00;;;29.07;15.14
49943;BME280;36011;53.362;58.948;2023-05-25T14:52:22;97554.59;;;28.90;15.41
49943;BME280;36011;53.362;58.948;2023-05-25T14:55:25;97549.53;;;28.74;15.38
49943;BME280;36011;53.362;58.948;2023-05-25T14:58:26;97544.78;;;28.54;15.72
49943;BME280;36011;53.362;58.948;2023-05-25T15:01:30;97550.03;;;28.34;15.98
49943;BME280;36011;53.362;58.948;2023-05-25T15:04:33;97549.66;;;28.16;15.51
49943;BME280;36011;53.362;58.948;2023-05-25T15:07:39;97545.53;;;27.98;15.89
49943;BME280;36011;53.362;58.948;2023-05-25T15:10:43;97556.59;;;27.82;16.31
49943;BME280;36011;53.362;58.948;2023-05-25T15:13:46;97555.59;;;27.68;16.65
49943;BME280;36011;53.362;58.948;2023-05-25T15:16:50;97559.81;;;27.56;16.62
49943;BME280;36011;53.362;58.948;2023-05-25T15:19:53;97558.00;;;27.42;17.02
49943;BME280;36011;53.362;58.948;2023-05-25T15:22:56;97552.63;;;27.27;16.82
49943;BME280;36011;53.362;58.948;2023-05-25T15:25:57;97542.72;;;27.04;17.61
49943;BME280;36011;53.362;58.948;2023-05-25T15:29:06;97553.16;;;26.78;18.11
49943;BME280;36011;53.362;58.948;2023-05-25T15:32:07;97552.59;;;26.53;18.23
49943;BME280;36011;53.362;58.948;2023-05-25T15:35:10;97552.78;;;26.28;18.43
49943;BME280;36011;53.362;58.948;2023-05-25T15:38:14;97546.75;;;26.03;18.16
49943;BME280;36011;53.362;58.948;2023-05-25T15:41:20;97548.72;;;25.86;18.63
49943;BME280;36011;53.362;58.948;2023-05-25T15:44:25;97551.22;;;25.65;19.19
49943;BME280;36011;53.362;58.948;2023-05-25T15:47:26;97553.69;;;25.43;19.65
49943;BME280;36011;53.362;58.948;2023-05-25T15:50:32;97547.56;;;25.18;19.76
49943;BME280;36011;53.362;58.948;2023-05-25T15:53:35;97549.31;;;24.95;19.73
49943;BME280;36011;53.362;58.948;2023-05-25T15:56:39;97554.25;;;24.75;19.84
49943;BME280;36011;53.362;58.948;2023-05-25T15:59:40;97549.06;;;24.57;20.26
49943;BME280;36011;53.362;58.948;2023-05-25T16:02:45;97548.56;;;24.37;20.35
49943;BME280;36011;53.362;58.948;2023-05-25T16:05:46;97550.75;;;24.17;21.15
49943;BME280;36011;53.362;58.948;2023-05-25T16:08:50;97550.44;;;23.95;21.83
49943;BME280;36011;53.362;58.948;2023-05-25T16:11:51;97548.91;;;23.85;21.20
49943;BME280;36011;53.362;58.948;2023-05-25T16:14:54;97548.56;;;23.80;21.76
49943;BME280;36011;53.362;58.948;2023-05-25T16:17:58;97548.91;;;23.77;22.46
49943;BME280;36011;53.362;58.948;2023-05-25T16:21:00;97548.50;;;23.63;22.17
49943;BME280;36011;53.362;58.948;2023-05-25T16:24:04;97548.50;;;23.47;22.44